Terminal Aerodrome Forecast
Issued by NWS Wilmington, OH

Home | Current Version | Previous Version | Text Only | Print | Product List | Glossary On
Versions: 1 2 3 4 5 6 7 8 9 10 11 12 13 14 15 16 17
000
FTUS41 KILN 311500 AAA
TAFILN
TAF AMD
KILN 311505Z 3115/0112 22005KT P6SM OVC045
     FM311630 27010KT P6SM -SHRA OVC035
     FM311900 29012KT P6SM -SHRA BKN015 OVC025
     FM312200 30013G21KT P6SM -SHRA SCT015 OVC025
     FM010000 32019G30KT P6SM -SHRA OVC010
     FM010400 33019G30KT 2SM -SN BR OVC008=

USA.gov is the U.S. government's official web portal to all federal, state and local government web resources and services.